createdAt,value
2022-11-03T00:01:31.938Z,1527
2022-11-03T00:06:50.012Z,1524
2022-11-03T00:12:08.256Z,1514
2022-11-03T00:17:26.771Z,1519
2022-11-03T00:22:45.225Z,1506
2022-11-03T00:28:04.012Z,1511
2022-11-03T00:33:22.502Z,1512
2022-11-03T00:38:40.999Z,1502
2022-11-03T00:43:59.773Z,1488
2022-11-03T00:49:18.534Z,1480
2022-11-03T00:54:37.006Z,1479
2022-11-03T00:59:55.477Z,1474
2022-11-03T01:05:13.725Z,1465
2022-11-03T01:10:31.921Z,1478
2022-11-03T01:15:50.668Z,1477
2022-11-03T01:21:09.188Z,1475
2022-11-03T01:26:27.923Z,1474
2022-11-03T01:31:46.411Z,1470
2022-11-03T01:37:04.901Z,1455
2022-11-03T01:42:23.373Z,1455
2022-11-03T01:47:41.566Z,1449
2022-11-03T01:53:00.363Z,1455
2022-11-03T01:58:18.556Z,1481
2022-11-03T02:03:36.791Z,1477
2022-11-03T02:08:55.562Z,1473
2022-11-03T02:14:14.301Z,1486
2022-11-03T02:19:32.555Z,1471
2022-11-03T02:24:52.904Z,1453
2022-11-03T02:30:12.260Z,1442
2022-11-03T02:35:30.505Z,1449
2022-11-03T02:40:49.000Z,1454
2022-11-03T02:46:07.464Z,1446
2022-11-03T02:51:25.955Z,1451
2022-11-03T02:56:43.892Z,1452
2022-11-03T03:02:02.200Z,1447
2022-11-03T03:07:21.081Z,1447
2022-11-03T03:12:39.319Z,1442
2022-11-03T03:17:57.774Z,1452
2022-11-03T03:23:16.261Z,1449
2022-11-03T03:28:36.038Z,1443
2022-11-03T03:33:59.701Z,1436
2022-11-03T03:39:52.399Z,1436
2022-11-03T03:45:10.916Z,1428
2022-11-03T03:50:29.103Z,1442
2022-11-03T03:55:47.304Z,1443
2022-11-03T04:01:05.832Z,1475
2022-11-03T04:06:24.027Z,1467
2022-11-03T04:11:42.779Z,1466
2022-11-03T04:17:01.024Z,1459
2022-11-03T04:22:19.508Z,1441
2022-11-03T04:27:23.071Z,1436
2022-11-03T04:32:41.325Z,1446
2022-11-03T04:37:59.492Z,1506
2022-11-03T04:43:17.890Z,1544
2022-11-03T04:48:36.125Z,1478
2022-11-03T04:53:54.582Z,1458
2022-11-03T04:59:13.053Z,1449
2022-11-03T05:04:31.284Z,1442
2022-11-03T05:09:49.488Z,1414
2022-11-03T05:15:07.394Z,1425
2022-11-03T05:20:26.215Z,1432
2022-11-03T05:25:53.325Z,1420
2022-11-03T05:31:11.820Z,1432
2022-11-03T05:36:30.627Z,937
2022-11-03T05:41:48.797Z,835
2022-11-03T05:47:08.255Z,807
2022-11-03T05:52:26.735Z,773
2022-11-03T05:57:45.335Z,717
2022-11-03T06:03:04.089Z,747
2022-11-03T06:13:42.115Z,987
2022-11-03T06:19:00.570Z,1048
2022-11-03T06:24:19.097Z,1121
2022-11-03T06:29:36.990Z,1148
2022-11-03T06:34:55.506Z,1152
2022-11-03T06:40:13.747Z,1155
2022-11-03T06:45:31.913Z,1154
2022-11-03T06:50:50.404Z,1164
2022-11-03T06:56:09.214Z,1164
2022-11-03T07:01:27.802Z,1165
2022-11-03T07:06:31.903Z,1163
2022-11-03T07:11:50.587Z,1161
2022-11-03T07:17:09.449Z,1160
2022-11-03T07:22:28.205Z,1160
2022-11-03T07:27:47.019Z,1149
2022-11-03T07:33:05.189Z,1139
2022-11-03T07:38:23.415Z,1139
2022-11-03T07:43:42.202Z,1133
2022-11-03T07:49:00.956Z,1127
2022-11-03T07:54:19.433Z,1121
2022-11-03T07:59:38.225Z,1118
2022-11-03T08:04:56.415Z,1117
2022-11-03T08:10:14.358Z,1117
2022-11-03T08:15:32.866Z,1111
2022-11-03T08:20:51.040Z,1112
2022-11-03T08:26:09.816Z,1122
2022-11-03T08:31:13.097Z,1121
2022-11-03T08:36:31.395Z,1117
2022-11-03T08:41:49.883Z,1116
2022-11-03T08:47:08.658Z,1117
2022-11-03T08:52:27.135Z,1113
2022-11-03T08:57:45.661Z,1114
2022-11-03T09:03:04.151Z,1112
2022-11-03T09:14:55.064Z,1105
2022-11-03T09:20:13.850Z,1106
2022-11-03T09:25:32.020Z,1100
2022-11-03T09:30:50.526Z,1096
2022-11-03T09:36:09.034Z,1092
2022-11-03T09:41:44.605Z,1094
2022-11-03T09:47:17.059Z,1100
2022-11-03T09:52:35.824Z,1103
2022-11-03T09:57:54.362Z,1100
2022-11-03T10:03:12.845Z,1092
2022-11-03T10:08:31.415Z,1093
2022-11-03T10:13:49.867Z,1088
2022-11-03T10:19:08.642Z,1087
2022-11-03T10:24:26.901Z,1089
2022-11-03T10:29:48.476Z,1086
2022-11-03T10:35:16.950Z,1078
2022-11-03T10:40:47.643Z,1077
2022-11-03T10:46:08.170Z,1073
2022-11-03T10:52:07.240Z,1070
2022-11-03T10:57:26.022Z,1068
2022-11-03T11:02:44.783Z,1059
2022-11-03T11:08:03.097Z,1053
2022-11-03T11:13:21.666Z,1052
2022-11-03T11:18:39.957Z,1044
2022-11-03T11:23:58.691Z,1044
2022-11-03T11:29:17.496Z,1041
2022-11-03T11:34:35.960Z,1038
2022-11-03T11:39:54.447Z,1029
2022-11-03T11:45:12.684Z,1030
2022-11-03T11:50:30.867Z,1027
2022-11-03T11:55:49.065Z,1025
2022-11-03T12:01:07.662Z,1021
2022-11-03T12:06:26.136Z,1017
2022-11-03T12:11:45.643Z,1014
2022-11-03T12:17:10.413Z,1009
2022-11-03T12:22:28.872Z,1008
2022-11-03T12:27:47.098Z,1004
2022-11-03T12:33:05.963Z,1005
2022-11-03T12:38:25.391Z,1007
2022-11-03T12:43:44.218Z,1003
2022-11-03T12:49:02.858Z,1001
2022-11-03T12:54:21.343Z,994
2022-11-03T12:59:39.795Z,990
2022-11-03T13:04:58.313Z,988
2022-11-03T13:10:16.511Z,985
2022-11-03T13:15:34.446Z,980
2022-11-03T13:20:52.664Z,986
2022-11-03T13:26:11.410Z,987
2022-11-03T13:31:29.593Z,998
2022-11-03T13:36:48.116Z,1001
2022-11-03T13:42:06.050Z,1006
2022-11-03T13:47:29.907Z,1001
2022-11-03T14:00:47.166Z,988
2022-11-03T14:06:05.672Z,992
2022-11-03T14:11:24.270Z,981
2022-11-03T14:16:42.230Z,985
2022-11-03T14:22:01.090Z,983
2022-11-03T14:27:19.641Z,982
2022-11-03T14:32:38.321Z,978
2022-11-03T14:37:57.119Z,988
2022-11-03T14:43:15.317Z,1013
2022-11-03T14:48:33.776Z,1018
2022-11-03T14:53:52.274Z,1017
2022-11-03T14:59:10.220Z,1030
2022-11-03T15:04:28.712Z,1044
2022-11-03T15:09:47.463Z,1045
2022-11-03T15:15:06.256Z,1032
2022-11-03T15:20:24.160Z,994
2022-11-03T15:25:42.087Z,951
2022-11-03T15:31:00.633Z,924
2022-11-03T15:36:19.394Z,907
2022-11-03T15:41:38.196Z,893
2022-11-03T15:46:56.669Z,893
2022-11-03T15:52:15.164Z,900
2022-11-03T15:57:33.345Z,917
2022-11-03T16:02:51.745Z,933
2022-11-03T16:08:11.374Z,950
2022-11-03T16:13:29.891Z,948
2022-11-03T16:18:48.120Z,945
2022-11-03T16:24:06.852Z,938
2022-11-03T16:29:25.621Z,938
2022-11-03T16:34:43.961Z,897
2022-11-03T16:40:03.478Z,890
2022-11-03T16:45:21.941Z,891
2022-11-03T16:50:41.564Z,905
2022-11-03T16:56:03.080Z,857
2022-11-03T17:01:21.840Z,806
2022-11-03T17:06:41.058Z,710
2022-11-03T17:11:59.369Z,707
2022-11-03T17:17:19.459Z,819
2022-11-03T17:22:38.487Z,912
2022-11-03T17:27:56.960Z,888
2022-11-03T17:33:15.444Z,895
2022-11-03T17:38:34.232Z,886
2022-11-03T17:43:52.981Z,890
2022-11-03T17:49:11.466Z,799
2022-11-03T17:54:30.004Z,683
2022-11-03T17:59:48.728Z,698
2022-11-03T18:05:06.922Z,711
2022-11-03T18:10:25.423Z,683
2022-11-03T18:15:43.871Z,699
2022-11-03T18:21:02.357Z,828
2022-11-03T18:26:05.605Z,779
2022-11-03T18:31:24.442Z,829
2022-11-03T18:36:42.631Z,838
2022-11-03T18:42:00.945Z,811
2022-11-03T18:47:04.068Z,811
2022-11-03T18:52:22.823Z,825
2022-11-03T18:57:41.661Z,828
2022-11-03T19:02:59.827Z,849
2022-11-03T19:08:18.345Z,876
2022-11-03T19:13:36.564Z,731
2022-11-03T19:18:55.765Z,733
2022-11-03T19:24:14.505Z,814
2022-11-03T19:29:33.310Z,872
2022-11-03T19:34:51.783Z,902
2022-11-03T19:40:10.266Z,930
2022-11-03T19:45:28.714Z,956
2022-11-03T19:50:47.261Z,975
2022-11-03T19:56:05.720Z,1003
2022-11-03T20:01:24.083Z,1004
2022-11-03T20:06:43.076Z,1013
2022-11-03T20:12:01.531Z,1000
2022-11-03T20:17:04.701Z,989
2022-11-03T20:22:22.623Z,975
2022-11-03T20:27:41.071Z,952
2022-11-03T20:32:59.588Z,962
2022-11-03T20:38:17.470Z,980
2022-11-03T20:43:36.240Z,981
2022-11-03T20:48:55.053Z,991
2022-11-03T20:54:12.970Z,1006
2022-11-03T20:59:37.799Z,738
2022-11-03T21:04:57.122Z,782
2022-11-03T21:10:19.439Z,903
2022-11-03T21:16:03.970Z,1023
2022-11-03T21:21:42.576Z,1113
2022-11-03T21:27:00.782Z,1140
2022-11-03T21:32:19.255Z,1150
2022-11-03T21:37:38.004Z,1150
2022-11-03T21:42:56.227Z,1138
2022-11-03T21:48:14.963Z,1145
2022-11-03T21:53:34.866Z,1171
2022-11-03T21:58:53.037Z,1201
2022-11-03T22:04:11.296Z,1216
2022-11-03T22:09:29.772Z,1230
2022-11-03T22:14:48.516Z,1238
2022-11-03T22:20:06.709Z,1238
2022-11-03T22:25:25.226Z,1241
2022-11-03T22:30:43.441Z,1251
2022-11-03T22:36:02.173Z,1255
2022-11-03T22:41:20.682Z,1248
2022-11-03T22:46:39.156Z,1247
2022-11-03T22:51:57.376Z,1247
2022-11-03T22:57:15.595Z,1262
2022-11-03T23:02:34.147Z,1277
2022-11-03T23:07:52.788Z,1299
2022-11-03T23:13:11.779Z,1324
2022-11-03T23:18:30.008Z,1340
2022-11-03T23:23:48.791Z,1335
2022-11-03T23:29:07.269Z,1334
2022-11-03T23:34:25.728Z,1343
2022-11-03T23:39:44.535Z,1359
2022-11-03T23:45:03.347Z,1372
2022-11-03T23:50:22.263Z,1388
2022-11-03T23:55:40.472Z,1407
